createdAt,value
2023-03-07T00:01:07.502Z,67.70
2023-03-07T00:03:34.302Z,67.19
2023-03-07T00:06:05.852Z,67.08
2023-03-07T00:08:33.002Z,67.26
2023-03-07T00:11:05.198Z,67.21
2023-03-07T00:13:33.203Z,67.37
2023-03-07T00:16:05.116Z,67.36
2023-03-07T00:18:32.440Z,66.89
2023-03-07T00:21:00.922Z,67.08
2023-03-07T00:23:27.567Z,66.99
2023-03-07T00:25:59.209Z,66.67
2023-03-07T00:28:25.881Z,66.53
2023-03-07T00:30:52.513Z,66.85
2023-03-07T00:33:19.135Z,66.89
2023-03-07T00:35:53.856Z,66.79
2023-03-07T00:38:20.448Z,66.13
2023-03-07T00:40:47.034Z,66.00
2023-03-07T00:43:13.669Z,66.90
2023-03-07T00:45:40.306Z,66.38
2023-03-07T00:48:06.958Z,66.44
2023-03-07T00:50:34.270Z,66.45
2023-03-07T00:53:00.919Z,66.86
2023-03-07T00:55:27.493Z,67.34
2023-03-07T00:57:54.164Z,66.69
2023-03-07T01:00:21.170Z,66.53
2023-03-07T01:02:47.779Z,67.05
2023-03-07T01:05:14.744Z,66.57
2023-03-07T01:07:41.384Z,66.58
2023-03-07T01:10:08.484Z,67.46
2023-03-07T01:12:35.367Z,67.13
2023-03-07T01:15:05.278Z,67.16
2023-03-07T01:17:33.984Z,67.70
2023-03-07T01:20:00.746Z,67.95
2023-03-07T01:22:27.417Z,67.25
2023-03-07T01:24:54.014Z,67.43
2023-03-07T01:27:20.690Z,67.43
2023-03-07T01:29:47.291Z,67.32
2023-03-07T01:32:14.017Z,67.42
2023-03-07T01:34:40.707Z,66.92
2023-03-07T01:37:07.327Z,66.33
2023-03-07T01:39:33.938Z,66.73
2023-03-07T01:42:00.579Z,66.61
2023-03-07T01:44:27.308Z,66.63
2023-03-07T01:47:00.803Z,66.56
2023-03-07T01:49:32.484Z,66.43
2023-03-07T01:52:09.914Z,66.36
2023-03-07T01:54:41.178Z,66.22
2023-03-07T01:57:08.403Z,66.63
2023-03-07T01:59:40.554Z,66.43
2023-03-07T02:02:14.224Z,65.92
2023-03-07T02:05:00.940Z,67.22
2023-03-07T02:07:33.511Z,67.34
2023-03-07T02:10:00.915Z,67.42
2023-03-07T02:12:27.951Z,67.77
2023-03-07T02:14:54.767Z,68.46
2023-03-07T02:17:21.477Z,67.24
2023-03-07T02:20:24.259Z,67.07
2023-03-07T02:22:51.151Z,68.15
2023-03-07T02:25:36.757Z,68.10
2023-03-07T02:28:04.471Z,67.57
2023-03-07T02:30:31.258Z,67.21
2023-03-07T02:32:57.889Z,68.28
2023-03-07T02:35:25.609Z,68.36
2023-03-07T02:38:03.378Z,67.85
2023-03-07T02:40:31.437Z,68.22
2023-03-07T02:43:05.816Z,67.88
2023-03-07T02:45:32.469Z,68.16
2023-03-07T02:47:59.082Z,68.80
2023-03-07T02:50:25.742Z,68.74
2023-03-07T02:52:52.353Z,68.59
2023-03-07T02:55:19.097Z,68.36
2023-03-07T02:57:45.907Z,68.83
2023-03-07T03:00:13.121Z,68.09
2023-03-07T03:02:39.764Z,67.51
2023-03-07T03:05:07.176Z,68.11
2023-03-07T03:07:33.875Z,67.02
2023-03-07T03:10:00.477Z,67.03
2023-03-07T03:12:27.133Z,66.32
2023-03-07T03:14:53.724Z,65.72
2023-03-07T03:17:20.272Z,67.02
2023-03-07T03:19:46.971Z,65.52
2023-03-07T03:22:13.725Z,66.53
2023-03-07T03:24:41.910Z,65.55
2023-03-07T03:27:09.549Z,66.30
2023-03-07T03:29:36.281Z,66.20
2023-03-07T03:32:03.635Z,66.46
2023-03-07T03:34:30.520Z,66.80
2023-03-07T03:36:57.380Z,66.32
2023-03-07T03:39:24.028Z,66.18
2023-03-07T03:41:50.693Z,67.17
2023-03-07T03:44:17.429Z,66.16
2023-03-07T03:46:44.106Z,66.91
2023-03-07T03:49:14.147Z,67.58
2023-03-07T03:51:40.763Z,67.83
2023-03-07T03:54:07.299Z,67.65
2023-03-07T03:56:33.937Z,67.92
2023-03-07T03:59:00.630Z,67.37
2023-03-07T04:01:28.819Z,67.56
2023-03-07T04:03:56.510Z,67.83
2023-03-07T04:06:26.118Z,68.19
2023-03-07T04:08:53.569Z,68.20
2023-03-07T04:11:21.802Z,68.79
2023-03-07T04:13:48.653Z,68.96
2023-03-07T04:16:16.901Z,70.15
2023-03-07T04:18:43.942Z,68.78
2023-03-07T04:21:11.182Z,68.34
2023-03-07T04:23:38.025Z,69.08
2023-03-07T04:26:07.049Z,69.38
2023-03-07T04:28:45.158Z,68.88
2023-03-07T04:31:14.483Z,68.80
2023-03-07T04:33:42.710Z,68.75
2023-03-07T04:36:10.491Z,69.68
2023-03-07T04:38:39.069Z,69.52
2023-03-07T04:41:06.856Z,69.18
2023-03-07T04:43:34.522Z,69.23
2023-03-07T04:46:01.477Z,70.40
2023-03-07T04:48:28.296Z,70.72
2023-03-07T04:50:54.845Z,70.64
2023-03-07T04:53:22.511Z,71.53
2023-03-07T04:55:49.270Z,70.17
2023-03-07T04:58:16.196Z,70.60
2023-03-07T05:00:44.456Z,70.39
2023-03-07T05:03:12.444Z,70.73
2023-03-07T05:05:39.785Z,70.47
2023-03-07T05:08:07.095Z,70.22
2023-03-07T05:10:35.223Z,70.08
2023-03-07T05:13:02.245Z,69.68
2023-03-07T05:15:29.181Z,70.48
2023-03-07T05:17:56.265Z,70.93
2023-03-07T05:20:23.568Z,70.55
2023-03-07T05:22:50.547Z,70.17
2023-03-07T05:25:17.374Z,70.47
2023-03-07T05:27:43.997Z,70.84
2023-03-07T05:30:11.660Z,70.12
2023-03-07T05:32:38.321Z,70.28
2023-03-07T05:35:05.656Z,70.48
2023-03-07T05:37:32.291Z,69.35
2023-03-07T05:39:58.912Z,69.70
2023-03-07T05:42:25.582Z,69.03
2023-03-07T05:44:52.200Z,70.21
2023-03-07T05:47:18.815Z,69.87
2023-03-07T05:49:45.410Z,70.36
2023-03-07T05:52:12.056Z,70.94
2023-03-07T05:54:38.626Z,70.79
2023-03-07T05:57:05.233Z,71.23
2023-03-07T05:59:31.898Z,71.33
2023-03-07T06:01:58.483Z,71.47
2023-03-07T06:04:25.072Z,71.13
2023-03-07T06:06:51.680Z,70.99
2023-03-07T06:09:18.256Z,70.87
2023-03-07T06:11:44.894Z,70.67
2023-03-07T06:14:11.535Z,70.81
2023-03-07T06:16:38.139Z,70.23
2023-03-07T06:19:04.695Z,70.41
2023-03-07T06:21:31.493Z,70.55
2023-03-07T06:23:58.098Z,70.70
2023-03-07T06:26:24.718Z,70.44
2023-03-07T06:28:51.356Z,69.98
2023-03-07T06:31:19.493Z,70.04
2023-03-07T06:33:47.705Z,69.87
2023-03-07T06:36:17.059Z,70.08
2023-03-07T06:38:43.785Z,69.96
2023-03-07T06:41:10.648Z,70.13
2023-03-07T06:43:37.705Z,69.42
2023-03-07T06:46:04.838Z,70.00
2023-03-07T06:48:34.072Z,69.86
2023-03-07T06:51:06.301Z,69.18
2023-03-07T06:53:32.988Z,68.88
2023-03-07T06:55:59.630Z,68.81
2023-03-07T06:58:26.321Z,68.61
2023-03-07T07:00:52.883Z,68.89
2023-03-07T07:03:19.864Z,68.37
2023-03-07T07:05:46.655Z,68.69
2023-03-07T07:08:13.438Z,68.16
2023-03-07T07:10:39.992Z,68.19
2023-03-07T07:13:06.741Z,68.71
2023-03-07T07:15:33.724Z,67.47
2023-03-07T07:18:00.301Z,68.43
2023-03-07T07:20:27.037Z,68.48
2023-03-07T07:22:53.647Z,69.29
2023-03-07T07:25:20.238Z,68.93
2023-03-07T07:27:46.826Z,67.81
2023-03-07T07:30:13.965Z,66.93
2023-03-07T07:32:40.970Z,66.61
2023-03-07T07:35:08.311Z,67.49
2023-03-07T07:37:34.917Z,65.98
2023-03-07T07:40:01.543Z,65.39
2023-03-07T07:42:29.006Z,64.92
2023-03-07T07:44:56.360Z,66.04
2023-03-07T07:47:23.764Z,64.45
2023-03-07T07:49:50.360Z,63.81
2023-03-07T07:52:16.924Z,64.01
2023-03-07T07:54:43.626Z,65.59
2023-03-07T07:57:10.263Z,63.16
2023-03-07T07:59:36.868Z,63.61
2023-03-07T08:02:03.794Z,62.17
2023-03-07T08:04:30.537Z,61.04
2023-03-07T08:06:57.090Z,62.42
2023-03-07T08:09:23.741Z,62.39
2023-03-07T08:11:50.616Z,61.35
2023-03-07T08:14:17.259Z,62.00
2023-03-07T08:16:43.895Z,60.10
2023-03-07T08:19:10.734Z,57.09
2023-03-07T08:21:37.352Z,57.68
2023-03-07T08:24:04.214Z,55.93
2023-03-07T08:26:31.631Z,55.67
2023-03-07T08:28:58.934Z,56.03
2023-03-07T08:31:25.626Z,56.01
2023-03-07T08:33:52.630Z,56.99
2023-03-07T08:36:19.931Z,56.39
2023-03-07T08:38:51.717Z,56.57
2023-03-07T08:41:19.977Z,55.47
2023-03-07T08:43:46.654Z,56.87
2023-03-07T08:46:13.404Z,55.78
2023-03-07T08:48:40.092Z,55.12
2023-03-07T08:51:12.095Z,55.69
2023-03-07T08:53:38.973Z,56.15
2023-03-07T08:56:08.033Z,55.55
2023-03-07T08:58:35.052Z,55.88
2023-03-07T09:01:03.533Z,55.20
2023-03-07T09:03:30.379Z,55.87
2023-03-07T09:05:57.058Z,54.48
2023-03-07T09:08:23.768Z,54.49
2023-03-07T09:10:50.816Z,54.34
2023-03-07T09:13:18.549Z,53.68
2023-03-07T09:15:45.535Z,53.34
2023-03-07T09:18:12.342Z,54.09
2023-03-07T09:20:39.314Z,53.02
2023-03-07T09:23:06.965Z,54.47
2023-03-07T09:25:33.662Z,52.68
2023-03-07T09:28:00.497Z,53.70
2023-03-07T09:30:28.809Z,54.42
2023-03-07T09:32:56.967Z,52.67
2023-03-07T09:35:24.424Z,53.84
2023-03-07T09:37:51.428Z,53.53
2023-03-07T09:40:24.038Z,53.66
2023-03-07T09:43:10.694Z,54.50
2023-03-07T09:46:08.799Z,52.66
2023-03-07T09:49:06.382Z,52.85
2023-03-07T09:51:40.081Z,52.17
2023-03-07T09:54:14.026Z,52.62
2023-03-07T09:56:48.818Z,52.96
2023-03-07T09:59:36.783Z,54.55
2023-03-07T10:02:35.203Z,54.59
2023-03-07T10:05:37.027Z,51.88
2023-03-07T10:08:05.424Z,52.91
2023-03-07T10:11:18.345Z,52.51
2023-03-07T10:13:54.660Z,53.09
2023-03-07T10:16:31.122Z,52.17
2023-03-07T10:19:02.690Z,53.17
2023-03-07T10:21:47.974Z,52.53
2023-03-07T10:24:29.642Z,52.53
2023-03-07T10:27:06.583Z,53.50
2023-03-07T10:29:55.263Z,52.48
2023-03-07T10:32:39.828Z,52.36
2023-03-07T10:35:20.777Z,51.53
2023-03-07T10:37:56.130Z,51.26
2023-03-07T10:40:34.934Z,52.79
2023-03-07T10:43:01.670Z,51.93
2023-03-07T10:45:32.166Z,52.85
2023-03-07T10:48:15.480Z,53.95
2023-03-07T10:50:49.446Z,52.29
2023-03-07T10:53:29.163Z,52.00
2023-03-07T10:56:18.073Z,49.95
2023-03-07T10:59:04.733Z,51.90
2023-03-07T11:01:33.679Z,50.66
2023-03-07T11:04:21.594Z,52.00
2023-03-07T11:06:57.240Z,50.94
2023-03-07T11:09:34.900Z,49.74
2023-03-07T11:12:20.107Z,49.66
2023-03-07T11:15:11.152Z,49.23
2023-03-07T11:17:46.187Z,49.44
2023-03-07T11:20:47.576Z,49.20
2023-03-07T11:23:24.133Z,49.62
2023-03-07T11:25:52.608Z,49.51
2023-03-07T11:28:35.408Z,49.80
2023-03-07T11:31:13.916Z,49.73
2023-03-07T11:33:59.110Z,49.47
2023-03-07T11:36:36.883Z,48.35
2023-03-07T11:39:34.313Z,48.36
2023-03-07T11:42:15.935Z,48.88
2023-03-07T11:45:07.442Z,48.63
2023-03-07T11:47:49.814Z,49.62
2023-03-07T11:50:26.852Z,48.55
2023-03-07T11:53:24.788Z,48.83
2023-03-07T11:56:17.026Z,47.17
2023-03-07T11:59:19.265Z,47.08
2023-03-07T12:01:55.967Z,48.62
2023-03-07T12:05:04.268Z,48.84
2023-03-07T12:08:17.167Z,50.02
2023-03-07T12:11:21.142Z,48.09
2023-03-07T12:14:28.924Z,47.76
2023-03-07T12:17:29.482Z,48.41
2023-03-07T12:20:28.935Z,46.28
2023-03-07T12:23:07.537Z,47.28
2023-03-07T12:25:38.106Z,49.03
2023-03-07T12:28:17.793Z,48.49
2023-03-07T12:31:17.837Z,48.49
2023-03-07T12:34:14.157Z,47.14
2023-03-07T12:36:55.752Z,47.52
2023-03-07T12:39:31.325Z,48.21
2023-03-07T12:42:03.627Z,48.80
2023-03-07T12:44:49.212Z,46.80
2023-03-07T12:48:14.429Z,47.39
2023-03-07T12:51:22.480Z,49.04
2023-03-07T12:54:14.103Z,49.78
2023-03-07T12:57:10.126Z,47.48
2023-03-07T12:59:42.437Z,47.71
2023-03-07T13:02:18.129Z,47.78
2023-03-07T13:04:44.741Z,47.30
2023-03-07T13:07:27.497Z,46.87
2023-03-07T13:09:55.691Z,46.84
2023-03-07T13:12:30.305Z,48.87
2023-03-07T13:15:03.411Z,48.96
2023-03-07T13:18:01.204Z,51.00
2023-03-07T13:20:40.702Z,46.82
2023-03-07T13:23:28.160Z,48.32
2023-03-07T13:25:58.095Z,47.67
2023-03-07T13:28:45.253Z,47.49
2023-03-07T13:31:29.006Z,46.89
2023-03-07T13:33:55.795Z,48.35
2023-03-07T13:36:39.240Z,47.84
2023-03-07T13:39:38.084Z,47.18
2023-03-07T13:42:04.768Z,47.40
2023-03-07T13:44:40.973Z,46.64
2023-03-07T13:47:43.796Z,47.65
2023-03-07T13:50:39.369Z,47.50
2023-03-07T13:53:22.655Z,48.30
2023-03-07T13:56:03.371Z,48.72
2023-03-07T13:58:47.307Z,47.98
2023-03-07T14:01:18.602Z,48.52
2023-03-07T14:04:04.310Z,49.12
2023-03-07T14:06:55.244Z,49.12
2023-03-07T14:09:30.416Z,49.17
2023-03-07T14:12:18.304Z,48.00
2023-03-07T14:15:29.996Z,48.82
2023-03-07T14:18:31.931Z,48.13
2023-03-07T14:21:49.619Z,48.13
2023-03-07T14:24:34.690Z,49.04
2023-03-07T14:27:10.830Z,48.77
2023-03-07T14:29:37.548Z,51.35
2023-03-07T14:32:04.307Z,50.37
2023-03-07T14:34:35.859Z,49.14
2023-03-07T14:37:06.849Z,48.36
2023-03-07T14:40:14.880Z,49.23
2023-03-07T14:43:06.899Z,47.71
2023-03-07T14:46:08.215Z,47.68
2023-03-07T14:51:55.738Z,50.18
2023-03-07T14:54:32.086Z,49.70
2023-03-07T14:57:00.808Z,50.40
2023-03-07T14:59:29.350Z,48.40
2023-03-07T15:01:57.848Z,49.41
2023-03-07T15:04:32.780Z,48.53
2023-03-07T15:07:04.895Z,50.33
2023-03-07T15:09:33.738Z,50.18
2023-03-07T15:12:24.249Z,49.61
2023-03-07T15:14:55.980Z,49.42
2023-03-07T15:17:43.702Z,49.63
2023-03-07T15:20:26.005Z,51.81
2023-03-07T15:23:07.672Z,50.19
2023-03-07T15:25:38.794Z,48.88
2023-03-07T15:28:16.990Z,49.73
2023-03-07T15:30:53.193Z,50.85
2023-03-07T15:33:28.927Z,50.42
2023-03-07T15:36:20.242Z,51.23
2023-03-07T15:38:53.597Z,50.89
2023-03-07T15:41:37.381Z,51.12
2023-03-07T15:44:24.220Z,50.35
2023-03-07T15:46:54.578Z,51.73
2023-03-07T15:49:42.886Z,52.17
2023-03-07T15:52:51.276Z,53.22
2023-03-07T15:55:20.957Z,53.64
2023-03-07T15:57:56.854Z,54.55
2023-03-07T16:00:42.221Z,54.35
2023-03-07T16:03:31.934Z,52.91
2023-03-07T16:06:00.774Z,54.28
2023-03-07T16:08:27.743Z,55.10
2023-03-07T16:11:06.818Z,51.96
2023-03-07T16:13:41.067Z,52.82
2023-03-07T16:16:21.766Z,53.56
2023-03-07T16:18:49.592Z,55.56
2023-03-07T16:21:17.748Z,56.62
2023-03-07T16:23:45.656Z,54.38
2023-03-07T16:26:18.255Z,54.72
2023-03-07T16:28:44.901Z,56.16
2023-03-07T16:31:17.035Z,56.50
2023-03-07T16:33:44.643Z,56.71
2023-03-07T16:36:12.158Z,57.22
2023-03-07T16:38:38.985Z,57.35
2023-03-07T16:41:18.549Z,56.82
2023-03-07T16:43:46.887Z,58.33
2023-03-07T16:46:18.367Z,57.96
2023-03-07T16:48:45.387Z,57.94
2023-03-07T16:51:17.229Z,58.14
2023-03-07T16:53:45.619Z,57.82
2023-03-07T16:56:33.740Z,57.67
2023-03-07T16:59:01.488Z,56.66
2023-03-07T17:01:28.240Z,58.09
2023-03-07T17:03:58.287Z,58.48
2023-03-07T17:06:37.170Z,59.15
2023-03-07T17:09:11.167Z,59.66
2023-03-07T17:11:43.410Z,60.84
2023-03-07T17:14:12.551Z,61.25
2023-03-07T17:16:45.096Z,60.08
2023-03-07T17:19:32.826Z,60.85
2023-03-07T17:22:01.047Z,59.58
2023-03-07T17:24:29.307Z,59.77
2023-03-07T17:26:58.536Z,59.84
2023-03-07T17:29:41.211Z,59.97
2023-03-07T17:32:08.371Z,60.52
2023-03-07T17:34:36.891Z,60.86
2023-03-07T17:37:06.107Z,60.77
2023-03-07T17:39:34.463Z,61.37
2023-03-07T17:42:02.135Z,61.44
2023-03-07T17:44:29.688Z,61.60
2023-03-07T17:46:57.013Z,61.27
2023-03-07T17:49:24.316Z,60.74
2023-03-07T17:51:52.849Z,60.75
2023-03-07T17:54:19.700Z,60.66
2023-03-07T17:56:46.344Z,61.00
2023-03-07T17:59:12.972Z,61.23
2023-03-07T18:01:40.252Z,61.05
2023-03-07T18:04:07.110Z,61.19
2023-03-07T18:06:34.290Z,61.83
2023-03-07T18:09:01.727Z,61.77
2023-03-07T18:11:28.502Z,61.95
2023-03-07T18:13:55.380Z,62.42
2023-03-07T18:16:22.127Z,63.47
2023-03-07T18:18:58.804Z,64.04
2023-03-07T18:21:26.690Z,64.42
2023-03-07T18:23:53.583Z,64.06
2023-03-07T18:26:21.450Z,63.36
2023-03-07T18:28:49.632Z,63.94
2023-03-07T18:31:21.353Z,63.83
2023-03-07T18:33:52.808Z,64.62
2023-03-07T18:36:22.173Z,65.33
2023-03-07T18:38:49.615Z,64.75
2023-03-07T18:41:18.452Z,65.57
2023-03-07T18:43:45.561Z,65.54
2023-03-07T18:46:15.655Z,65.34
2023-03-07T18:48:42.468Z,65.09
2023-03-07T18:51:15.295Z,64.42
2023-03-07T18:53:42.854Z,64.92
2023-03-07T18:56:12.082Z,64.83
2023-03-07T18:58:39.492Z,64.58
2023-03-07T19:01:17.599Z,64.28
2023-03-07T19:03:45.683Z,64.30
2023-03-07T19:06:13.485Z,63.92
2023-03-07T19:08:40.605Z,64.10
2023-03-07T19:11:10.227Z,63.15
2023-03-07T19:13:37.445Z,63.81
2023-03-07T19:16:07.405Z,64.59
2023-03-07T19:18:36.039Z,64.48
2023-03-07T19:21:23.394Z,65.27
2023-03-07T19:23:50.835Z,65.05
2023-03-07T19:26:18.617Z,65.26
2023-03-07T19:28:47.280Z,65.23
2023-03-07T19:31:28.313Z,65.14
2023-03-07T19:33:55.029Z,65.15
2023-03-07T19:36:26.812Z,65.62
2023-03-07T19:38:56.411Z,65.19
2023-03-07T19:41:25.211Z,65.17
2023-03-07T19:43:52.596Z,65.17
2023-03-07T19:46:20.713Z,65.26
2023-03-07T19:48:47.777Z,65.70
2023-03-07T19:51:25.701Z,66.17
2023-03-07T19:53:55.337Z,66.06
2023-03-07T19:56:27.424Z,66.28
2023-03-07T19:58:55.018Z,66.22
2023-03-07T20:01:23.003Z,65.84
2023-03-07T20:03:50.821Z,66.23
2023-03-07T20:06:20.230Z,66.03
2023-03-07T20:08:51.758Z,66.49
2023-03-07T20:11:21.045Z,66.49
2023-03-07T20:13:48.222Z,67.61
2023-03-07T20:16:17.954Z,68.27
2023-03-07T20:18:51.908Z,68.40
2023-03-07T20:21:19.965Z,67.68
2023-03-07T20:23:48.352Z,68.66
2023-03-07T20:26:22.561Z,68.91
2023-03-07T20:28:51.147Z,69.38
2023-03-07T20:31:19.061Z,67.62
2023-03-07T20:33:46.624Z,68.25
2023-03-07T20:36:20.831Z,67.68
2023-03-07T20:38:50.086Z,67.60
2023-03-07T20:41:19.568Z,67.48
2023-03-07T20:43:47.622Z,67.54
2023-03-07T20:46:15.854Z,67.69
2023-03-07T20:48:43.419Z,67.47
2023-03-07T20:51:20.886Z,67.98
2023-03-07T20:53:52.746Z,67.14
2023-03-07T20:56:20.409Z,67.03
2023-03-07T20:58:47.973Z,67.90
2023-03-07T21:01:19.110Z,67.48
2023-03-07T21:03:46.038Z,67.85
2023-03-07T21:06:12.904Z,67.23
2023-03-07T21:08:39.520Z,67.29
2023-03-07T21:11:08.879Z,67.51
2023-03-07T21:13:38.033Z,66.95
2023-03-07T21:16:13.212Z,66.89
2023-03-07T21:18:40.068Z,66.58
2023-03-07T21:21:12.150Z,66.39
2023-03-07T21:23:39.411Z,66.67
2023-03-07T21:26:11.953Z,66.67
2023-03-07T21:28:38.456Z,66.70
2023-03-07T21:31:07.909Z,67.49
2023-03-07T21:33:35.808Z,67.52
2023-03-07T21:36:03.597Z,67.59
2023-03-07T21:38:30.678Z,67.95
2023-03-07T21:40:57.850Z,68.31
2023-03-07T21:43:24.729Z,68.33
2023-03-07T21:45:51.511Z,68.49
2023-03-07T21:48:19.444Z,67.56
2023-03-07T21:50:49.744Z,66.82
2023-03-07T21:53:16.478Z,67.15
2023-03-07T21:55:53.498Z,66.18
2023-03-07T21:58:21.257Z,66.46
2023-03-07T22:00:48.752Z,67.05
2023-03-07T22:03:15.784Z,66.80
2023-03-07T22:05:42.403Z,66.02
2023-03-07T22:08:09.136Z,65.42
2023-03-07T22:10:35.850Z,63.20
2023-03-07T22:13:03.388Z,63.53
2023-03-07T22:15:31.198Z,64.17
2023-03-07T22:17:57.903Z,62.43
2023-03-07T22:20:24.532Z,62.39
2023-03-07T22:22:51.290Z,61.55
2023-03-07T22:25:18.155Z,61.87
2023-03-07T22:27:45.388Z,61.65
2023-03-07T22:30:12.748Z,61.89
2023-03-07T22:32:39.602Z,61.54
2023-03-07T22:35:06.961Z,62.78
2023-03-07T22:37:33.595Z,62.37
2023-03-07T22:40:00.337Z,61.99
2023-03-07T22:42:26.975Z,62.70
2023-03-07T22:44:54.949Z,62.46
2023-03-07T22:47:21.603Z,62.94
2023-03-07T22:49:48.796Z,63.90
2023-03-07T22:52:15.443Z,64.02
2023-03-07T22:54:43.573Z,63.83
2023-03-07T22:57:10.212Z,63.95
2023-03-07T22:59:36.955Z,64.04
2023-03-07T23:02:03.650Z,63.87
2023-03-07T23:04:30.554Z,64.25
2023-03-07T23:06:57.243Z,64.34
2023-03-07T23:09:23.902Z,64.23
2023-03-07T23:11:50.519Z,63.94
2023-03-07T23:14:17.231Z,64.27
2023-03-07T23:16:43.899Z,63.96
2023-03-07T23:19:10.677Z,64.20
2023-03-07T23:21:37.705Z,63.93
2023-03-07T23:24:04.881Z,64.02
2023-03-07T23:26:34.730Z,63.82
2023-03-07T23:29:01.880Z,63.77
2023-03-07T23:31:31.547Z,64.32
2023-03-07T23:34:00.255Z,64.05
2023-03-07T23:36:28.932Z,63.91
2023-03-07T23:38:56.602Z,62.66
2023-03-07T23:41:23.725Z,63.09
2023-03-07T23:43:59.182Z,62.76
2023-03-07T23:46:26.726Z,62.97
2023-03-07T23:48:53.882Z,62.71
2023-03-07T23:51:21.317Z,62.10
2023-03-07T23:53:48.602Z,62.33
2023-03-07T23:56:15.938Z,62.47
2023-03-07T23:58:44.269Z,62.38
